Time;durP1;ratioP1;P1;durP2;ratioP2;P2;SDS_P1;SDS_P2;PMS_P1;PMS_P2;Temp;Humidity;BMP_temperature;BMP_pressure;BME280_temperature;BME280_humidity;BME280_pressure;Samples;Min_cycle;Max_cycle;Signal;HPM_P1;HPM_P2
2022/05/02 00:00:20;;;;;;;2.35;1.62;;;;;;;13.27;37.82;99347.94;1722466;82;21497;-70
2022/05/02 00:02:47;;;;;;;2.10;1.67;;;;;;;13.26;37.86;99351.11;1732951;82;20960;-69
2022/05/02 00:05:14;;;;;;;3.08;1.55;;;;;;;13.24;37.97;99353.16;1704382;82;20892;-68
2022/05/02 00:07:40;;;;;;;3.08;1.67;;;;;;;13.24;37.95;99346.97;1714073;82;21118;-68
2022/05/02 00:10:09;;;;;;;4.22;1.70;;;;;;;13.24;37.93;99350.98;1708784;82;20974;-68
2022/05/02 00:12:35;;;;;;;4.50;1.47;;;;;;;13.22;37.96;99353.03;1707913;81;20940;-68
2022/05/02 00:15:05;;;;;;;3.15;1.30;;;;;;;13.20;38.03;99349.19;1704746;82;21450;-68
2022/05/02 00:20:16;;;;;;;1.62;1.42;;;;;;;13.23;38.01;99354.66;1723112;82;21166;-68
2022/05/02 00:22:44;;;;;;;5.08;1.60;;;;;;;13.22;38.03;99347.69;1704520;82;21407;-68
2022/05/02 00:25:11;;;;;;;1.85;1.50;;;;;;;13.22;38.10;99353.83;1704512;82;20935;-68
2022/05/02 00:27:40;;;;;;;5.67;1.70;;;;;;;13.22;38.10;99353.03;1704621;82;20951;-68
2022/05/02 00:30:09;;;;;;;1.65;1.30;;;;;;;13.22;38.14;99350.35;1707924;82;20999;-68
2022/05/02 00:32:35;;;;;;;1.85;1.40;;;;;;;13.22;38.21;99346.34;1710093;82;21230;-68
2022/05/02 00:35:03;;;;;;;2.20;1.60;;;;;;;13.20;38.22;99343.84;1704578;82;21057;-68
2022/05/02 00:37:30;;;;;;;1.82;1.62;;;;;;;13.20;38.31;99346.52;1704653;82;20983;-68
2022/05/02 00:39:57;;;;;;;2.92;1.60;;;;;;;13.20;38.30;99348.36;1705371;82;21528;-68
2022/05/02 00:42:23;;;;;;;2.33;1.60;;;;;;;13.19;38.35;99344.05;1722380;82;20947;-69
2022/05/02 00:44:50;;;;;;;4.42;1.77;;;;;;;13.16;38.44;99339.08;1732776;81;21119;-68
2022/05/02 00:47:18;;;;;;;2.83;1.60;;;;;;;13.16;38.44;99342.59;1732832;82;21518;-67
2022/05/02 00:49:45;;;;;;;4.12;1.72;;;;;;;13.17;38.49;99339.38;1732803;81;20896;-68
2022/05/02 00:52:13;;;;;;;1.87;1.40;;;;;;;13.19;38.49;99342.18;1721002;82;20915;-68
2022/05/02 00:54:40;;;;;;;3.42;1.30;;;;;;;13.20;38.51;99337.67;1704767;82;21055;-68
2022/05/02 00:57:07;;;;;;;7.17;1.55;;;;;;;13.19;38.58;99336.84;1684687;82;21176;-68
2022/05/02 00:59:37;;;;;;;1.55;1.40;;;;;;;13.23;38.51;99328.78;1704790;82;20864;-68
2022/05/02 01:02:05;;;;;;;3.83;1.90;;;;;;;13.24;38.60;99333.62;1716179;82;20876;-67
2022/05/02 01:04:33;;;;;;;5.22;2.17;;;;;;;13.25;38.64;99325.91;1704724;82;20953;-67
2022/05/02 01:07:09;;;;;;;2.20;1.60;;;;;;;13.25;38.70;99326.73;1704696;82;20919;-69
2022/05/02 01:09:42;;;;;;;1.55;1.42;;;;;;;13.26;38.71;99324.40;1704858;82;21413;-69
2022/05/02 01:12:22;;;;;;;2.65;1.67;;;;;;;13.28;38.73;99334.38;1712985;82;20924;-69
2022/05/02 01:14:51;;;;;;;2.95;1.40;;;;;;;13.31;38.65;99322.48;1704581;82;20987;-69
2022/05/02 01:17:18;;;;;;;3.15;1.70;;;;;;;13.35;38.51;99323.73;1704636;82;21497;-69
2022/05/02 01:19:45;;;;;;;3.42;1.67;;;;;;;13.38;38.44;99326.86;1704659;82;20955;-68
2022/05/02 01:22:11;;;;;;;1.80;1.57;;;;;;;13.42;38.42;99319.30;1712829;82;21283;-67
2022/05/02 01:24:44;;;;;;;6.80;1.62;;;;;;;13.44;38.41;99320.77;1704744;82;21040;-68
2022/05/02 01:27:11;;;;;;;2.58;1.90;;;;;;;13.46;38.50;99317.38;1704742;82;20943;-69
2022/05/02 01:29:43;;;;;;;4.22;1.85;;;;;;;13.47;38.48;99314.20;1711085;82;20940;-69
2022/05/02 01:32:12;;;;;;;2.30;1.62;;;;;;;13.48;38.51;99312.66;1711361;82;20992;-69
2022/05/02 01:34:42;;;;;;;2.60;1.80;;;;;;;13.50;38.58;99307.95;1704957;82;21176;-68
2022/05/02 01:37:10;;;;;;;1.90;1.70;;;;;;;13.50;38.61;99305.27;1704728;82;20987;-68
2022/05/02 01:39:37;;;;;;;2.12;1.90;;;;;;;13.50;38.66;99307.95;1718682;82;21077;-68
2022/05/02 01:42:06;;;;;;;1.98;1.70;;;;;;;13.52;38.67;99315.78;1735720;81;20982;-68
2022/05/02 01:44:34;;;;;;;1.90;1.40;;;;;;;13.53;38.70;99309.44;1702488;83;20904;-69
2022/05/02 01:47:01;;;;;;;3.02;1.60;;;;;;;13.54;38.73;99314.58;1722818;82;21196;-68
2022/05/02 01:49:27;;;;;;;3.45;1.72;;;;;;;13.54;38.75;99306.55;1722968;82;21025;-68
2022/05/02 01:51:54;;;;;;;2.62;1.50;;;;;;;13.57;38.79;99310.69;1731452;81;21498;-68
2022/05/02 01:54:21;;;;;;;1.35;1.25;;;;;;;13.58;38.83;99303.80;1722822;82;20871;-68
2022/05/02 01:56:47;;;;;;;2.15;1.70;;;;;;;13.59;38.87;99301.95;1722803;82;20958;-68
2022/05/02 01:59:14;;;;;;;1.95;1.77;;;;;;;13.60;38.94;99297.77;1722828;82;22079;-68
2022/05/02 02:01:40;;;;;;;4.17;1.45;;;;;;;13.65;38.97;99302.53;1730294;81;20943;-68
2022/05/02 02:06:53;;;;;;;2.80;1.42;;;;;;;13.68;38.99;99295.47;1742962;82;21496;-68
2022/05/02 02:09:20;;;;;;;1.72;1.40;;;;;;;13.71;38.99;99293.75;1751419;82;20978;-69
2022/05/02 02:11:48;;;;;;;2.10;1.50;;;;;;;13.72;38.97;99291.37;1730860;81;21113;-68
2022/05/02 02:14:14;;;;;;;1.60;1.50;;;;;;;13.77;38.93;99296.12;1735847;81;20896;-70
2022/05/02 02:16:41;;;;;;;1.20;1.10;;;;;;;13.79;38.92;99297.58;1729747;81;20954;-68
2022/05/02 02:19:07;;;;;;;2.40;1.72;;;;;;;13.82;38.95;99299.87;1722691;82;21018;-69
2022/05/02 02:21:34;;;;;;;2.05;1.67;;;;;;;13.83;38.91;99292.17;1725633;81;20860;-69
2022/05/02 02:24:02;;;;;;;2.02;1.20;;;;;;;13.86;38.93;99299.81;1732767;82;21263;-69
2022/05/02 02:26:29;;;;;;;2.45;1.62;;;;;;;13.88;38.94;99297.76;1693553;83;21198;-68
2022/05/02 02:28:58;;;;;;;2.20;1.20;;;;;;;13.90;38.96;99301.56;1732707;82;21485;-69
2022/05/02 02:31:24;;;;;;;3.55;1.70;;;;;;;13.92;38.97;99302.22;1711956;83;20950;-68
2022/05/02 02:33:51;;;;;;;1.95;1.50;;;;;;;13.93;38.98;99309.20;1722734;82;21057;-69
2022/05/02 02:36:18;;;;;;;2.10;1.62;;;;;;;13.94;39.02;99315.70;1722698;82;21221;-69
2022/05/02 02:38:44;;;;;;;3.08;2.12;;;;;;;13.96;39.03;99309.64;1726182;81;20960;-68
2022/05/02 02:41:12;;;;;;;2.75;1.42;;;;;;;13.99;39.03;99315.11;1712423;81;20865;-69
2022/05/02 02:43:39;;;;;;;1.98;1.65;;;;;;;14.01;39.08;99311.72;1704578;82;21505;-68
2022/05/02 02:46:06;;;;;;;2.62;1.75;;;;;;;14.03;39.14;99309.17;1704693;82;20903;-68
2022/05/02 02:48:32;;;;;;;1.57;1.47;;;;;;;14.05;39.17;99308.98;1704571;82;21171;-68
2022/05/02 02:51:02;;;;;;;2.50;1.60;;;;;;;14.07;39.27;99302.92;1706850;82;21010;-69
2022/05/02 02:53:29;;;;;;;1.35;1.25;;;;;;;14.08;39.39;99300.55;1704834;82;21006;-67
2022/05/02 02:55:56;;;;;;;1.85;1.55;;;;;;;14.10;39.41;99305.21;1704542;82;20983;-68
2022/05/02 02:58:23;;;;;;;3.22;1.57;;;;;;;14.11;39.48;99300.16;1704705;82;20904;-68
2022/05/02 03:00:50;;;;;;;2.37;1.62;;;;;;;14.14;39.54;99299.77;1705778;82;21110;-68
2022/05/02 03:03:17;;;;;;;2.42;1.65;;;;;;;14.18;39.63;99299.70;1704420;82;20971;-68
2022/05/02 03:06:01;;;;;;;1.67;1.40;;;;;;;14.21;39.65;99301.95;1704764;82;20968;-68
2022/05/02 03:08:30;;;;;;;1.70;1.60;;;;;;;14.23;39.64;99299.40;1724160;82;20995;-69
2022/05/02 03:10:57;;;;;;;1.40;1.30;;;;;;;14.30;39.51;99303.46;1721132;81;21524;-68
2022/05/02 03:13:23;;;;;;;2.62;1.55;;;;;;;14.38;39.44;99295.30;1709705;82;21274;-69
2022/05/02 03:15:50;;;;;;;3.27;1.60;;;;;;;14.50;39.30;99293.70;1732803;82;21079;-68
2022/05/02 03:18:17;;;;;;;2.25;1.47;;;;;;;14.63;39.20;99300.95;1732830;82;20983;-68
2022/05/02 03:20:43;;;;;;;1.52;1.37;;;;;;;14.75;39.02;99297.52;1721941;82;20952;-67
2022/05/02 03:23:10;;;;;;;2.42;1.77;;;;;;;14.88;38.77;99295.89;1723592;82;20939;-69
2022/05/02 03:25:37;;;;;;;2.77;1.55;;;;;;;15.01;38.57;99295.42;1723635;82;21868;-69
2022/05/02 03:28:04;;;;;;;2.10;1.55;;;;;;;15.12;38.34;99300.16;1732500;82;20880;-69
2022/05/02 03:30:31;;;;;;;4.33;1.65;;;;;;;15.26;38.13;99299.67;1722825;81;21007;-69
2022/05/02 03:32:58;;;;;;;2.12;1.52;;;;;;;15.40;37.90;99298.16;1704524;82;20927;-68
2022/05/02 03:35:25;;;;;;;2.12;1.47;;;;;;;15.50;37.74;99295.59;1704642;82;20939;-68
2022/05/02 03:37:52;;;;;;;2.10;1.32;;;;;;;15.58;37.54;99310.97;1722174;82;21171;-69
2022/05/02 03:40:18;;;;;;;3.80;1.40;;;;;;;15.60;37.45;99308.90;1714517;82;20970;-68
2022/05/02 03:42:45;;;;;;;1.65;1.55;;;;;;;15.61;37.38;99314.59;1705298;81;21027;-70
2022/05/02 03:45:12;;;;;;;2.50;1.50;;;;;;;15.57;37.43;99314.67;1704411;82;21475;-69
2022/05/02 03:47:38;;;;;;;1.72;1.40;;;;;;;15.53;37.49;99314.78;1704439;82;20991;-69
2022/05/02 03:50:06;;;;;;;1.70;1.60;;;;;;;15.49;37.58;99312.73;1709941;82;22198;-68
2022/05/02 03:52:33;;;;;;;2.42;1.60;;;;;;;15.47;37.69;99318.28;1704353;82;21549;-68
2022/05/02 03:54:59;;;;;;;1.90;1.70;;;;;;;15.46;37.70;99317.16;1704466;82;20995;-68
2022/05/02 03:57:26;;;;;;;2.27;1.60;;;;;;;15.43;37.67;99314.34;1704485;82;21105;-69
2022/05/02 03:59:52;;;;;;;1.92;1.70;;;;;;;15.39;37.63;99314.42;1711806;82;21058;-69
2022/05/02 04:02:19;;;;;;;3.85;1.72;;;;;;;15.36;37.67;99320.19;1706707;82;21270;-67
2022/05/02 04:04:45;;;;;;;3.60;1.72;;;;;;;15.35;37.66;99319.90;1704509;82;20885;-71
2022/05/02 04:07:12;;;;;;;1.60;1.50;;;;;;;15.31;37.66;99319.47;1704623;82;21459;-69
2022/05/02 04:09:38;;;;;;;2.02;1.70;;;;;;;15.28;37.70;99324.41;1709781;82;20986;-69
2022/05/02 04:12:06;;;;;;;2.62;1.82;;;;;;;15.24;37.77;99325.85;1717280;82;20951;-68
2022/05/02 04:14:35;;;;;;;2.30;1.50;;;;;;;15.22;37.85;99326.58;1708034;81;20896;-68
2022/05/02 04:17:01;;;;;;;4.42;2.42;;;;;;;15.25;37.87;99326.17;1704718;82;20991;-68
2022/05/02 04:19:27;;;;;;;3.47;2.90;;;;;;;15.26;37.95;99327.81;1708907;82;21557;-68
2022/05/02 04:21:54;;;;;;;6.55;5.00;;;;;;;15.28;38.00;99322.55;1711900;82;21062;-68
2022/05/02 04:24:20;;;;;;;5.95;4.25;;;;;;;15.30;38.08;99330.41;1708592;82;21517;-70
2022/05/02 04:26:47;;;;;;;3.62;2.42;;;;;;;15.29;38.32;99324.22;1704914;82;21849;-68
2022/05/02 04:29:13;;;;;;;2.27;1.90;;;;;;;15.30;38.44;99323.70;1706444;82;21112;-68
2022/05/02 04:31:40;;;;;;;4.25;2.15;;;;;;;15.32;38.73;99321.64;1710120;82;21035;-68
2022/05/02 04:34:07;;;;;;;3.42;2.02;;;;;;;15.37;39.06;99313.81;1707318;82;21098;-67
2022/05/02 04:36:34;;;;;;;2.35;2.00;;;;;;;15.40;39.68;99313.41;1704890;82;20988;-67
2022/05/02 04:39:00;;;;;;;1.98;1.75;;;;;;;15.39;39.79;99303.70;1706735;82;22128;-68
2022/05/02 04:41:27;;;;;;;2.60;2.40;;;;;;;15.39;39.86;99299.69;1728441;81;21025;-68
2022/05/02 04:43:55;;;;;;;3.02;2.72;;;;;;;15.40;39.76;99305.36;1727776;81;21074;-69
2022/05/02 04:46:21;;;;;;;5.30;3.25;;;;;;;15.40;40.29;99300.84;1722942;82;20947;-70
2022/05/02 04:48:48;;;;;;;3.00;2.70;;;;;;;15.41;40.29;99302.97;1724203;81;21010;-68
2022/05/02 04:51:14;;;;;;;6.30;2.95;;;;;;;15.41;40.45;99304.31;1730092;82;21276;-69
2022/05/02 04:53:42;;;;;;;2.58;2.37;;;;;;;15.42;40.51;99298.77;1725538;81;21418;-69
2022/05/02 04:56:09;;;;;;;6.40;2.52;;;;;;;15.48;40.53;99305.20;1727409;81;21072;-71
2022/05/02 04:58:35;;;;;;;4.55;2.40;;;;;;;15.50;40.63;99303.13;1739859;81;20879;-70
2022/05/02 05:01:07;;;;;;;3.55;3.12;;;;;;;15.53;40.69;99301.89;1730900;82;21019;-69
2022/05/02 05:03:34;;;;;;;5.87;2.85;;;;;;;15.58;40.93;99308.30;1723005;82;21165;-70
2022/05/02 05:06:01;;;;;;;5.55;3.12;;;;;;;15.60;41.14;99312.92;1732274;81;21060;-69
2022/05/02 05:08:28;;;;;;;4.62;2.83;;;;;;;15.57;41.04;99316.02;1739566;81;21460;-68
2022/05/02 05:11:15;;;;;;;3.37;2.70;;;;;;;15.52;41.17;99314.47;1733732;80;20994;-69
2022/05/02 05:17:08;;;;;;;12.75;3.00;;;;;;;15.51;41.65;99314.69;1722987;82;21290;-67
2022/05/02 05:20:11;;;;;;;3.60;3.10;;;;;;;15.47;42.31;99311.58;1722899;82;21404;-66
2022/05/02 05:23:12;;;;;;;5.20;3.55;;;;;;;15.43;43.12;99305.76;1746766;82;21001;-67
2022/05/02 05:26:13;;;;;;;5.97;3.90;;;;;;;15.41;44.27;99321.73;1760210;80;20970;-68
2022/05/02 05:29:07;;;;;;;6.85;4.40;;;;;;;15.42;44.57;99316.70;1725334;82;20986;-69
2022/05/02 05:31:49;;;;;;;7.80;4.15;;;;;;;15.51;44.88;99318.70;1745786;82;21335;-68
2022/05/02 05:34:57;;;;;;;5.72;4.50;;;;;;;16.15;44.54;99313.48;1730886;81;20903;-69
2022/05/02 05:37:50;;;;;;;;;;;;;;;16.97;43.25;99311.73;1739738;81;21068;-69
2022/05/02 05:40:39;;;;;;;4.12;3.20;;;;;;;18.14;40.56;99297.10;1730522;82;20107;-67
2022/05/02 05:43:28;;;;;;;3.98;2.50;;;;;;;18.98;38.36;99311.14;1714199;82;21110;-65
2022/05/02 05:46:15;;;;;;;3.45;2.45;;;;;;;19.25;36.46;99297.56;1718190;82;21205;-66
2022/05/02 05:49:23;;;;;;;3.00;2.62;;;;;;;19.34;35.51;99294.84;1698582;82;21033;-67
2022/05/02 05:52:04;;;;;;;3.08;1.75;;;;;;;19.21;35.22;99295.05;1709369;82;20999;-69
2022/05/02 05:54:41;;;;;;;2.15;1.90;;;;;;;19.10;34.04;99309.30;1712498;82;21133;-68
2022/05/02 05:57:28;;;;;;;7.20;2.25;;;;;;;19.00;34.04;99294.21;1714996;82;21059;-69
2022/05/02 06:00:11;;;;;;;2.42;1.50;;;;;;;18.92;33.23;99299.91;1706930;82;21307;-70
2022/05/02 06:03:08;;;;;;;1.92;1.72;;;;;;;18.80;32.71;99301.72;1715386;82;21051;-69
2022/05/02 06:05:44;;;;;;;4.78;1.62;;;;;;;18.76;32.56;99289.77;1711781;82;21050;-69
2022/05/02 06:08:15;;;;;;;4.10;1.77;;;;;;;18.76;32.33;99291.11;1697579;82;21534;-71
2022/05/02 06:10:42;;;;;;;2.37;1.42;;;;;;;19.09;31.92;99281.52;1714350;82;20947;-70
2022/05/02 06:13:09;;;;;;;2.42;1.50;;;;;;;19.47;31.10;99292.50;1638135;86;21113;-68
2022/05/02 06:18:27;;;;;;;3.30;1.27;;;;;;;20.10;29.78;99285.35;1688970;82;21547;-70
2022/05/02 06:20:57;;;;;;;1.95;1.30;;;;;;;20.14;29.24;99279.79;1704227;82;21090;-71
2022/05/02 06:23:28;;;;;;;3.67;1.60;;;;;;;20.33;28.80;99293.18;1710883;82;21003;-70
2022/05/02 06:25:55;;;;;;;3.95;1.70;;;;;;;20.74;28.59;99286.20;1716783;82;21139;-67
2022/05/02 06:28:23;;;;;;;3.37;1.65;;;;;;;21.30;27.91;99282.14;1720432;82;21464;-68
2022/05/02 06:30:52;;;;;;;1.75;1.65;;;;;;;21.92;27.44;99268.05;1719849;82;21081;-72
2022/05/02 06:33:19;;;;;;;2.08;1.80;;;;;;;22.55;26.53;99292.47;1698110;82;20967;-70
2022/05/02 06:36:35;;;;;;;4.28;1.70;;;;;;;23.12;26.11;99261.69;1717134;82;20963;-67
2022/05/02 06:39:06;;;;;;;3.42;1.82;;;;;;;24.30;24.49;99286.28;1707624;83;21272;-73
2022/05/02 06:41:44;;;;;;;3.37;1.70;;;;;;;24.30;24.49;99286.28;1701047;82;20964;-71
2022/05/02 06:44:37;;;;;;;5.28;2.10;;;;;;;24.61;24.17;99274.47;1698790;83;20956;-68
2022/05/02 06:47:35;;;;;;;3.80;1.60;;;;;;;24.92;23.90;99262.63;1722302;82;21494;-69
2022/05/02 06:50:04;;;;;;;2.90;1.25;;;;;;;25.25;23.49;99259.95;1749084;80;21065;-68
2022/05/02 06:52:35;;;;;;;2.22;1.65;;;;;;;25.58;23.26;99268.98;1722255;82;21148;-67
2022/05/02 06:55:34;;;;;;;2.35;1.85;;;;;;;25.85;23.04;99265.97;1729387;82;20993;-71
2022/05/02 06:58:29;;;;;;;2.25;1.87;;;;;;;26.10;22.80;99265.09;1645918;85;21754;-67
2022/05/02 07:01:29;;;;;;;3.47;2.15;;;;;;;26.37;22.42;99269.70;1718020;82;20938;-69
2022/05/02 07:04:10;;;;;;;3.85;2.10;;;;;;;26.69;21.83;99267.39;1731287;82;20907;-69
2022/05/02 07:07:01;;;;;;;2.90;1.98;;;;;;;26.75;21.85;99275.02;1720521;82;21270;-68
2022/05/02 07:09:38;;;;;;;2.35;2.15;;;;;;;26.71;22.06;99262.47;1721942;82;20955;-66
2022/05/02 07:12:23;;;;;;;3.08;1.87;;;;;;;26.90;22.07;99270.33;1720365;82;20911;-66
2022/05/02 07:15:13;;;;;;;4.90;2.30;;;;;;;27.21;21.91;99270.95;1739710;82;20962;-70
2022/05/02 07:18:03;;;;;;;2.55;1.95;;;;;;;27.58;21.65;99275.90;1720393;82;20935;-69
2022/05/02 07:20:44;;;;;;;2.05;1.85;;;;;;;27.83;21.23;99257.91;1739635;82;21180;-67
2022/05/02 07:23:42;;;;;;;4.53;2.27;;;;;;;27.59;21.55;99270.67;1746849;82;20998;-74
2022/05/02 07:26:13;;;;;;;6.35;1.98;;;;;;;27.19;22.03;99260.87;1748826;82;20947;-67
2022/05/02 07:28:47;;;;;;;4.95;2.10;;;;;;;27.52;21.87;99256.54;1722525;82;21473;-68
2022/05/02 07:31:22;;;;;;;3.55;2.87;;;;;;;27.72;21.81;99246.79;1740308;82;20943;-68
2022/05/02 07:33:53;;;;;;;2.50;1.80;;;;;;;27.99;21.63;99256.66;1749012;82;21252;-68
2022/05/02 07:36:23;;;;;;;3.62;2.08;;;;;;;28.07;21.20;99275.20;1749245;82;20903;-69
2022/05/02 07:38:55;;;;;;;5.22;2.30;;;;;;;28.58;20.92;99252.71;1748802;82;21548;-72
2022/05/02 07:41:29;;;;;;;3.50;2.50;;;;;;;28.71;20.88;99247.92;1737931;82;21094;-67
2022/05/02 07:44:04;;;;;;;5.12;2.42;;;;;;;28.37;21.09;99253.52;1731846;82;21533;-70
2022/05/02 07:46:37;;;;;;;3.58;2.20;;;;;;;29.07;20.63;99234.57;1732727;81;22023;-65
2022/05/02 07:49:05;;;;;;;3.65;2.20;;;;;;;29.64;20.19;99238.87;1732553;81;20932;-69
2022/05/02 07:51:33;;;;;;;3.33;2.67;;;;;;;30.05;19.61;99250.77;1732704;82;21030;-68
2022/05/02 07:54:01;;;;;;;5.50;3.00;;;;;;;30.14;19.36;99248.14;1732629;82;21008;-69
2022/05/02 07:56:30;;;;;;;2.85;1.98;;;;;;;30.16;19.34;99245.91;1732603;81;21023;-66
2022/05/02 07:58:57;;;;;;;3.95;2.10;;;;;;;30.19;19.45;99241.19;1732713;81;21253;-69
2022/05/02 08:01:24;;;;;;;2.60;2.00;;;;;;;30.26;19.51;99242.41;1732710;81;21005;-67
2022/05/02 08:03:52;;;;;;;3.25;2.30;;;;;;;30.64;19.40;99235.33;1732669;81;20964;-68
2022/05/02 08:06:48;;;;;;;3.20;2.15;;;;;;;31.02;18.82;99225.74;1732656;82;21059;-71
2022/05/02 08:09:31;;;;;;;2.50;2.30;;;;;;;31.20;18.77;99224.76;1732573;82;20919;-69
2022/05/02 08:12:19;;;;;;;3.42;2.77;;;;;;;31.48;18.54;99226.84;1732613;82;21269;-67
2022/05/02 08:15:08;;;;;;;4.53;2.33;;;;;;;31.49;18.16;99218.30;1732418;82;20944;-69
2022/05/02 08:17:49;;;;;;;3.95;2.98;;;;;;;31.35;18.38;99224.38;1732655;81;21565;-70
2022/05/02 08:20:46;;;;;;;2.67;1.95;;;;;;;31.49;18.54;99215.55;1732831;81;21466;-69
2022/05/02 08:27:15;;;;;;;4.42;2.20;;;;;;;32.26;17.64;99216.52;1733032;82;21310;-67
2022/05/02 08:29:55;;;;;;;5.70;2.00;;;;;;;32.46;17.50;99204.91;1729974;82;20892;-69
2022/05/02 08:32:35;;;;;;;4.72;2.33;;;;;;;32.70;17.29;99203.95;1719110;82;21554;-69
2022/05/02 08:35:14;;;;;;;2.52;1.82;;;;;;;32.88;16.97;99197.88;1732170;82;20904;-66
2022/05/02 08:38:07;;;;;;;3.00;1.85;;;;;;;32.75;17.07;99198.28;1732860;82;20995;-67
2022/05/02 08:41:16;;;;;;;4.35;2.08;;;;;;;32.93;16.84;99186.70;1728510;82;21171;-67
2022/05/02 08:44:06;;;;;;;2.22;1.70;;;;;;;33.10;16.71;99197.77;1732564;82;20889;-67
2022/05/02 08:46:51;;;;;;;5.00;1.90;;;;;;;33.34;16.90;99184.30;1732700;82;21007;-65
2022/05/02 08:50:14;;;;;;;3.92;2.10;;;;;;;33.91;16.50;99184.83;1732694;82;20975;-70
2022/05/02 08:53:08;;;;;;;4.45;1.90;;;;;;;34.44;16.10;99188.98;1732774;81;20980;-69
2022/05/02 08:56:17;;;;;;;4.35;1.87;;;;;;;34.86;15.82;99181.58;1732085;81;22086;-68
2022/05/02 08:59:02;;;;;;;6.72;2.47;;;;;;;35.31;15.34;99182.49;1732472;81;20940;-71
2022/05/02 09:02:08;;;;;;;3.15;1.98;;;;;;;35.60;15.22;99167.74;1723683;82;20935;-66
2022/05/02 09:04:46;;;;;;;5.25;2.05;;;;;;;35.94;14.75;99185.33;1625075;86;21120;-68
2022/05/02 09:07:52;;;;;;;4.75;1.80;;;;;;;34.89;15.22;99179.50;1697495;82;21465;-71
2022/05/02 09:10:30;;;;;;;3.05;2.20;;;;;;;35.14;14.65;99166.89;1730560;82;21232;-70
2022/05/02 09:13:18;;;;;;;3.02;1.77;;;;;;;34.56;14.79;99166.44;1732622;81;20975;-68
2022/05/02 09:16:13;;;;;;;3.42;2.20;;;;;;;35.18;14.67;99163.67;1726910;82;20904;-68
2022/05/02 09:19:17;;;;;;;2.83;2.50;;;;;;;35.44;14.01;99159.83;1733100;82;20988;-68
2022/05/02 09:21:52;;;;;;;2.40;2.20;;;;;;;35.77;13.73;99149.58;1732303;82;21363;-71
2022/05/02 09:24:42;;;;;;;3.35;2.60;;;;;;;36.10;13.53;99150.31;1732347;82;21150;-69
2022/05/02 09:27:36;;;;;;;3.33;2.40;;;;;;;36.57;13.16;99151.22;1732212;82;20932;-67
2022/05/02 09:30:33;;;;;;;3.92;2.12;;;;;;;36.98;13.04;99147.55;1732652;82;22221;-70
2022/05/02 09:33:30;;;;;;;3.95;2.15;;;;;;;37.36;12.62;99137.91;1732899;81;20927;-72
2022/05/02 09:36:27;;;;;;;2.58;2.35;;;;;;;37.63;12.51;99145.38;1713095;82;21047;-68
2022/05/02 09:39:15;;;;;;;2.85;2.33;;;;;;;37.78;12.37;99145.97;1728901;82;21882;-68
2022/05/02 09:42:18;;;;;;;3.12;2.15;;;;;;;37.79;12.21;99146.78;1723750;82;21489;-69
2022/05/02 09:51:34;;;;;;;5.42;2.37;;;;;;;37.12;12.83;99126.36;1714113;83;20912;-68
2022/05/02 09:57:16;;;;;;;5.75;2.83;;;;;;;35.71;13.08;99117.75;1730337;83;21031;-68
2022/05/02 09:59:48;;;;;;;3.20;2.58;;;;;;;35.48;13.21;99117.91;1729546;83;20944;-69
2022/05/02 10:02:20;;;;;;;4.17;2.33;;;;;;;35.47;13.26;99116.28;1701738;83;21486;-68
2022/05/02 10:05:08;;;;;;;2.47;2.20;;;;;;;35.41;13.35;99115.69;1721766;83;21592;-69
2022/05/02 10:07:44;;;;;;;3.02;2.47;;;;;;;34.47;13.98;99113.77;1730234;83;22170;-68
2022/05/02 10:10:12;;;;;;;;;;;;;;;32.82;15.02;99122.89;1732049;83;20991;-68
2022/05/02 10:13:06;;;;;;;4.55;2.47;;;;;;;31.62;15.79;99125.32;1730326;82;20083;-67
2022/05/02 10:16:18;;;;;;;4.10;2.40;;;;;;;30.85;16.47;99114.33;1726921;83;20955;-68
2022/05/02 10:18:59;;;;;;;3.45;2.70;;;;;;;30.39;17.25;99116.78;1730357;83;20896;-67
2022/05/02 10:21:50;;;;;;;3.27;2.50;;;;;;;29.84;17.74;99113.80;1730444;83;21147;-67
2022/05/02 10:24:44;;;;;;;4.95;2.80;;;;;;;29.27;18.49;99118.69;1729610;83;21493;-68
2022/05/02 10:27:35;;;;;;;3.02;2.70;;;;;;;28.90;18.70;99108.33;1730790;82;20996;-68
2022/05/02 10:30:07;;;;;;;4.87;2.30;;;;;;;28.44;19.21;99106.82;1730380;82;21050;-67
2022/05/02 10:32:56;;;;;;;4.20;2.47;;;;;;;28.09;19.59;99113.03;1730703;82;21042;-68
2022/05/02 10:35:26;;;;;;;4.08;2.62;;;;;;;27.87;19.60;99106.45;1730471;83;21261;-67
2022/05/02 10:38:01;;;;;;;3.02;2.25;;;;;;;27.56;19.32;99106.78;1730338;83;20888;-68
2022/05/02 10:40:43;;;;;;;4.78;2.27;;;;;;;27.29;19.78;99102.95;1716383;83;21022;-67
2022/05/02 10:43:13;;;;;;;8.48;2.67;;;;;;;27.12;20.12;99107.45;1702368;83;21019;-67
2022/05/02 10:45:40;;;;;;;4.25;2.37;;;;;;;26.95;20.62;99100.25;1702188;83;21007;-67
2022/05/02 10:48:40;;;;;;;4.42;2.45;;;;;;;26.88;21.24;99100.56;1722706;82;21254;-68
2022/05/02 10:51:33;;;;;;;5.50;2.40;;;;;;;26.82;21.44;99103.09;1746564;82;20911;-68
2022/05/02 10:54:27;;;;;;;4.65;2.70;;;;;;;26.65;21.46;99099.89;1740890;81;20974;-68
2022/05/02 10:56:59;;;;;;;4.12;2.40;;;;;;;26.55;21.62;99095.88;1747246;82;20896;-68
2022/05/02 10:59:29;;;;;;;2.77;2.52;;;;;;;26.33;21.68;99103.66;1750300;82;20891;-67
2022/05/02 11:02:37;;;;;;;4.42;2.25;;;;;;;26.21;21.83;99108.08;1751465;82;21780;-67
2022/05/02 11:05:10;;;;;;;2.05;1.90;;;;;;;26.07;21.81;99099.41;1746603;82;21002;-67
2022/05/02 11:08:11;;;;;;;3.87;2.20;;;;;;;26.02;22.16;99093.98;1701106;82;20986;-67
2022/05/02 11:10:45;;;;;;;3.75;2.20;;;;;;;25.98;21.99;99083.36;1744208;82;20927;-68
2022/05/02 11:13:27;;;;;;;3.62;2.60;;;;;;;25.87;21.87;99083.12;1751515;82;21473;-67
2022/05/02 11:16:20;;;;;;;3.75;2.02;;;;;;;25.76;21.61;99081.80;1751427;82;21470;-68
2022/05/02 11:22:31;;;;;;;4.58;1.98;;;;;;;25.10;22.00;99070.80;1751610;82;20955;-70
2022/05/02 11:25:07;;;;;;;4.70;2.02;;;;;;;24.83;22.42;99075.16;1750736;82;20922;-70
2022/05/02 11:27:44;;;;;;;5.45;2.47;;;;;;;24.72;22.46;99072.13;1723453;82;21654;-69
2022/05/02 11:30:12;;;;;;;5.30;3.02;;;;;;;24.68;22.40;99066.97;1741797;82;21109;-68
2022/05/02 11:32:48;;;;;;;6.10;3.10;;;;;;;24.68;21.92;99068.86;1742314;82;21509;-70
2022/05/02 11:35:31;;;;;;;4.17;2.33;;;;;;;24.65;21.62;99072.13;1751267;82;20911;-67
2022/05/02 11:38:35;;;;;;;3.37;2.22;;;;;;;24.56;21.54;99068.58;1751376;82;20986;-69
2022/05/02 11:41:12;;;;;;;2.10;1.87;;;;;;;24.54;21.97;99072.66;1751486;82;21018;-69
2022/05/02 11:43:40;;;;;;;4.67;2.10;;;;;;;24.59;21.77;99067.22;1751481;82;21168;-69
2022/05/02 11:46:26;;;;;;;4.08;2.00;;;;;;;24.51;21.60;99062.31;1751366;82;21773;-70
2022/05/02 11:49:17;;;;;;;;;;;;;;;24.40;21.13;99056.05;1753962;82;20899;-69
2022/05/02 11:51:50;;;;;;;3.37;1.62;;;;;;;24.32;21.28;99067.48;1751249;82;20098;-69
2022/05/02 11:54:35;;;;;;;2.50;2.30;;;;;;;24.29;20.33;99058.50;1751227;80;20891;-68
2022/05/02 11:57:24;;;;;;;1.77;1.67;;;;;;;24.45;20.02;99058.80;1751675;82;21166;-67
2022/05/02 12:00:07;;;;;;;4.92;2.30;;;;;;;24.45;20.02;99058.80;1751448;82;21400;-70
2022/05/02 12:02:42;;;;;;;3.15;2.83;;;;;;;24.60;20.62;99061.25;1751345;82;20955;-72
2022/05/02 12:05:32;;;;;;;14.55;2.80;;;;;;;24.71;20.68;99075.12;1751599;82;21505;-68
2022/05/02 12:08:03;;;;;;;6.37;3.33;;;;;;;24.78;21.66;99072.95;1751313;82;21029;-68
2022/05/02 12:10:47;;;;;;;9.98;2.65;;;;;;;24.71;22.64;99077.84;1751459;82;21244;-68
2022/05/02 12:13:16;;;;;;;6.65;3.85;;;;;;;24.56;23.28;99068.58;1751469;82;21034;-66
2022/05/02 12:16:00;;;;;;;11.73;3.30;;;;;;;24.38;23.77;99067.73;1751341;82;20946;-67
2022/05/02 12:18:47;;;;;;;8.98;2.95;;;;;;;24.19;23.86;99065.28;1750921;82;20867;-66
2022/05/02 12:21:41;;;;;;;9.60;2.20;;;;;;;24.08;23.85;99052.73;1751351;82;20922;-67
2022/05/02 12:24:09;;;;;;;7.50;2.17;;;;;;;23.98;24.10;99051.86;1751397;82;21776;-71
2022/05/02 12:26:46;;;;;;;5.70;2.10;;;;;;;23.82;24.70;99050.45;1751443;82;21017;-72
2022/05/02 12:29:15;;;;;;;4.58;2.30;;;;;;;23.74;24.69;99042.00;1745029;82;20894;-69
2022/05/02 12:31:42;;;;;;;5.15;2.00;;;;;;;23.69;24.25;99044.70;1751462;82;20951;-69
2022/05/02 12:34:12;;;;;;;5.55;1.98;;;;;;;23.60;24.34;99042.20;1751409;82;20974;-70
2022/05/02 12:36:52;;;;;;;3.15;1.98;;;;;;;23.57;24.73;99037.32;1722476;82;21169;-68
2022/05/02 12:39:31;;;;;;;2.20;1.80;;;;;;;23.55;24.75;99029.42;1744408;82;20990;-71
2022/05/02 12:42:19;;;;;;;2.77;2.12;;;;;;;23.51;24.97;99022.91;1746122;82;21029;-67
2022/05/02 12:45:03;;;;;;;6.97;2.70;;;;;;;23.47;25.03;99016.36;1732749;82;20900;-68